Time;durP1;ratioP1;P1;durP2;ratioP2;P2;SDS_P1;SDS_P2;PMS_P1;PMS_P2;Temp;Humidity;BMP_temperature;BMP_pressure;BME280_temperature;BME280_humidity;BME280_pressure;Samples;Min_cycle;Max_cycle;Signal;HPM_P1;HPM_P2
2023/04/14 00:02:21;;;;;;;5.50;2.65;;;5.80;99.90;;;;;;5036356;28;20030;-74
2023/04/14 00:04:51;;;;;;;4.53;2.13;;;5.80;99.90;;;;;;5036286;28;20186;-74
2023/04/14 00:07:17;;;;;;;5.95;1.88;;;5.90;99.90;;;;;;5040192;28;20044;-74
2023/04/14 00:09:43;;;;;;;7.35;2.10;;;6.10;99.90;;;;;;5039788;28;20025;-74
2023/04/14 00:12:10;;;;;;;4.10;2.05;;;6.20;99.90;;;;;;5040240;28;20021;-74
2023/04/14 00:14:36;;;;;;;3.28;1.73;;;6.30;99.90;;;;;;5039353;28;20183;-74
2023/04/14 00:17:01;;;;;;;4.88;2.40;;;6.40;99.90;;;;;;5039783;28;20089;-74
2023/04/14 00:19:27;;;;;;;4.38;2.28;;;6.30;99.90;;;;;;5039085;28;20032;-74
2023/04/14 00:21:52;;;;;;;5.68;2.40;;;6.10;99.90;;;;;;5039181;28;20029;-74
2023/04/14 00:24:18;;;;;;;6.13;1.90;;;6.00;99.90;;;;;;5039252;28;20033;-74
2023/04/14 00:26:43;;;;;;;3.70;2.05;;;5.90;99.90;;;;;;5040037;28;20037;-74
2023/04/14 00:29:09;;;;;;;4.15;2.17;;;5.80;99.90;;;;;;5038813;28;20025;-74
2023/04/14 00:31:34;;;;;;;4.38;2.47;;;5.70;99.90;;;;;;5039244;28;20018;-74
2023/04/14 00:34:00;;;;;;;6.38;2.47;;;5.60;99.90;;;;;;5038830;28;20029;-74
2023/04/14 00:36:25;;;;;;;3.67;1.70;;;5.60;99.90;;;;;;5038899;28;20037;-74
2023/04/14 00:38:51;;;;;;;4.55;2.08;;;5.60;99.90;;;;;;5039148;28;20108;-74
2023/04/14 00:41:17;;;;;;;5.63;2.85;;;5.60;99.90;;;;;;5038850;28;20084;-74
2023/04/14 00:43:42;;;;;;;7.80;1.95;;;5.60;99.90;;;;;;5039034;28;20025;-74
2023/04/14 00:46:08;;;;;;;5.00;2.45;;;5.70;99.90;;;;;;5038861;28;20081;-74
2023/04/14 00:48:34;;;;;;;6.25;2.38;;;5.70;99.90;;;;;;5040104;28;20033;-74
2023/04/14 00:50:59;;;;;;;4.90;2.45;;;5.60;99.90;;;;;;5039001;28;20025;-74
2023/04/14 00:53:26;;;;;;;4.53;2.30;;;5.40;99.90;;;;;;5039549;28;20049;-74
2023/04/14 00:55:51;;;;;;;5.07;2.40;;;5.40;99.90;;;;;;5038420;28;20025;-74
2023/04/14 00:58:17;;;;;;;4.65;2.72;;;5.30;99.90;;;;;;5038365;28;20108;-74
2023/04/14 01:00:43;;;;;;;3.22;2.05;;;5.40;99.90;;;;;;5038315;28;20029;-74
2023/04/14 01:03:08;;;;;;;5.25;2.20;;;5.40;99.90;;;;;;5039201;28;20030;-74
2023/04/14 01:05:34;;;;;;;5.20;2.35;;;5.50;99.90;;;;;;5038529;28;20105;-74
2023/04/14 01:08:01;;;;;;;5.57;1.95;;;5.50;99.90;;;;;;5038394;28;20064;-74
2023/04/14 01:10:39;;;;;;;3.13;1.95;;;5.40;99.90;;;;;;5038156;28;20022;-74
2023/04/14 01:13:11;;;;;;;2.65;1.77;;;5.30;99.90;;;;;;5039089;28;20121;-74
2023/04/14 01:15:43;;;;;;;;;;;5.30;99.90;;;;;;5039496;28;20035;-74
2023/04/14 01:18:15;;;;;;;4.32;1.25;;;5.30;99.90;;;;;;5037208;28;19936;-74
2023/04/14 01:20:50;;;;;;;2.90;1.70;;;5.20;99.90;;;;;;5038059;28;20034;-74
2023/04/14 01:23:18;;;;;;;5.50;1.83;;;5.40;99.90;;;;;;5039255;28;20052;-74
2023/04/14 01:25:59;;;;;;;4.35;2.00;;;5.60;99.90;;;;;;5039005;28;20025;-74
2023/04/14 01:28:43;;;;;;;3.85;1.88;;;5.70;99.90;;;;;;5038877;28;20074;-74
2023/04/14 01:31:29;;;;;;;2.85;1.95;;;5.60;99.90;;;;;;5037781;28;20028;-74
2023/04/14 01:34:13;;;;;;;4.30;1.63;;;5.70;99.90;;;;;;5037819;28;20026;-74
2023/04/14 01:36:53;;;;;;;3.97;1.52;;;5.70;99.90;;;;;;5037736;28;20022;-74
2023/04/14 01:39:22;;;;;;;3.00;1.65;;;5.60;99.90;;;;;;5037561;28;20124;-74
2023/04/14 01:41:53;;;;;;;3.67;1.80;;;5.50;99.90;;;;;;5037635;28;20040;-74
2023/04/14 01:44:21;;;;;;;2.42;1.80;;;5.40;99.90;;;;;;5038473;28;20025;-74
2023/04/14 01:46:49;;;;;;;5.05;2.60;;;5.30;99.90;;;;;;5037689;28;20071;-74
2023/04/14 01:49:17;;;;;;;4.80;1.50;;;5.20;99.90;;;;;;5037490;28;20027;-68
2023/04/14 01:51:44;;;;;;;3.53;1.50;;;5.20;99.90;;;;;;5037837;28;20108;-68
2023/04/14 01:54:12;;;;;;;4.35;1.80;;;5.10;99.90;;;;;;5038534;28;20121;-68
2023/04/14 01:56:39;;;;;;;4.32;2.10;;;5.00;99.90;;;;;;5037615;28;20061;-68
2023/04/14 01:59:05;;;;;;;5.18;1.63;;;4.90;99.90;;;;;;5037521;28;20028;-68
2023/04/14 02:01:33;;;;;;;3.15;1.88;;;4.90;99.90;;;;;;5037159;28;20083;-68
2023/04/14 02:04:01;;;;;;;5.10;1.80;;;4.80;99.90;;;;;;5038197;28;20029;-69
2023/04/14 02:06:30;;;;;;;7.93;1.90;;;4.70;99.90;;;;;;5038200;28;20029;-69
2023/04/14 02:08:59;;;;;;;5.43;1.98;;;4.70;99.90;;;;;;5037071;28;20108;-68
2023/04/14 02:11:26;;;;;;;4.18;1.92;;;4.70;99.90;;;;;;5037120;28;20021;-69
2023/04/14 02:13:53;;;;;;;4.93;2.63;;;4.70;99.90;;;;;;5037844;28;20021;-68
2023/04/14 02:16:19;;;;;;;3.30;1.77;;;4.70;99.90;;;;;;5053853;28;20068;-68
2023/04/14 02:18:46;;;;;;;5.18;2.40;;;4.80;99.90;;;;;;5037069;28;20022;-68
2023/04/14 02:21:15;;;;;;;4.57;2.50;;;4.80;99.90;;;;;;5037216;28;20025;-68
2023/04/14 02:23:40;;;;;;;8.10;2.10;;;4.80;99.90;;;;;;5037139;28;20029;-68
2023/04/14 02:26:11;;;;;;;5.75;2.38;;;4.80;99.90;;;;;;5037161;28;20029;-68
2023/04/14 02:28:45;;;;;;;5.72;2.60;;;4.80;99.90;;;;;;5038257;28;20030;-68
2023/04/14 02:31:12;;;;;;;9.30;2.45;;;4.70;99.90;;;;;;5037144;28;20112;-68
2023/04/14 02:33:39;;;;;;;6.13;2.30;;;4.60;99.90;;;;;;5037599;28;20064;-69
2023/04/14 02:36:38;;;;;;;3.17;2.05;;;4.50;99.90;;;;;;5037593;28;20021;-68
2023/04/14 02:39:09;;;;;;;5.15;2.28;;;4.50;99.90;;;;;;5034035;28;20037;-69
2023/04/14 02:41:37;;;;;;;8.32;2.05;;;4.50;99.90;;;;;;5037495;28;20030;-68
2023/04/14 02:44:16;;;;;;;2.50;2.20;;;4.50;99.90;;;;;;5036570;28;20067;-68
2023/04/14 02:46:52;;;;;;;4.55;2.33;;;4.50;99.90;;;;;;5036562;28;20116;-68
2023/04/14 02:49:20;;;;;;;3.30;2.40;;;4.50;99.90;;;;;;5037681;28;20052;-68
2023/04/14 02:51:47;;;;;;;7.00;2.05;;;4.70;99.90;;;;;;5036921;28;20021;-68
2023/04/14 02:54:13;;;;;;;3.65;1.73;;;4.80;99.90;;;;;;5036315;28;20082;-68
2023/04/14 02:56:39;;;;;;;6.18;2.30;;;5.00;99.90;;;;;;5036324;28;20025;-69
2023/04/14 02:59:06;;;;;;;3.47;2.10;;;5.10;99.90;;;;;;5036254;28;20037;-68
2023/04/14 03:01:32;;;;;;;6.28;3.03;;;5.10;99.90;;;;;;5036167;28;20056;-68
2023/04/14 03:03:58;;;;;;;3.13;2.30;;;5.00;99.90;;;;;;5037109;28;20029;-69
2023/04/14 03:06:26;;;;;;;5.15;2.28;;;5.00;99.90;;;;;;5036431;28;20021;-68
2023/04/14 03:08:53;;;;;;;4.40;2.70;;;5.00;99.90;;;;;;5036971;28;20029;-68
2023/04/14 03:11:21;;;;;;;8.45;3.55;;;4.90;99.90;;;;;;5036097;28;20021;-68
2023/04/14 03:13:51;;;;;;;4.88;2.70;;;4.90;99.90;;;;;;5036706;28;20029;-69
2023/04/14 03:16:22;;;;;;;5.63;2.85;;;4.80;99.90;;;;;;5036534;28;20033;-68
2023/04/14 03:18:49;;;;;;;8.80;3.33;;;4.80;99.90;;;;;;5036697;28;20029;-68
2023/04/14 03:21:17;;;;;;;7.80;3.70;;;4.80;99.90;;;;;;5036752;28;20064;-68
2023/04/14 03:23:45;;;;;;;7.13;3.45;;;4.80;99.90;;;;;;5036256;28;20036;-68
2023/04/14 03:26:14;;;;;;;7.03;3.85;;;4.90;99.90;;;;;;5036118;28;20022;-68
2023/04/14 03:28:42;;;;;;;9.23;3.65;;;5.00;99.90;;;;;;5036920;28;20080;-68
2023/04/14 03:31:10;;;;;;;6.85;3.33;;;5.00;99.90;;;;;;5035888;28;20025;-68
2023/04/14 03:33:37;;;;;;;6.72;3.60;;;5.00;99.90;;;;;;5037026;28;20021;-68
2023/04/14 03:36:05;;;;;;;13.77;4.30;;;5.10;99.90;;;;;;5035863;28;20028;-68
2023/04/14 03:38:31;;;;;;;15.32;4.15;;;5.00;99.90;;;;;;5036460;28;20022;-68
2023/04/14 03:41:00;;;;;;;15.73;4.80;;;5.00;99.90;;;;;;5036981;28;20030;-68
2023/04/14 03:43:30;;;;;;;20.13;5.18;;;5.00;99.90;;;;;;5040863;28;20033;-68
2023/04/14 03:45:56;;;;;;;27.17;5.53;;;4.90;99.90;;;;;;5040737;28;20022;-68
2023/04/14 03:48:25;;;;;;;16.15;4.78;;;4.90;99.90;;;;;;5040883;28;20017;-69
2023/04/14 03:50:52;;;;;;;24.27;6.13;;;5.00;99.90;;;;;;5040087;28;20163;-68
2023/04/14 03:53:20;;;;;;;15.52;4.30;;;5.00;99.90;;;;;;5040838;28;20026;-68
2023/04/14 03:55:48;;;;;;;13.80;3.90;;;4.90;99.90;;;;;;5039691;28;20032;-68
2023/04/14 03:58:15;;;;;;;18.13;3.75;;;5.00;99.90;;;;;;5039714;28;20036;-69
2023/04/14 04:00:42;;;;;;;21.73;4.88;;;5.00;99.90;;;;;;5040507;28;20108;-68
2023/04/14 04:03:09;;;;;;;13.70;4.03;;;4.90;99.90;;;;;;5039901;28;20060;-68
2023/04/14 04:05:39;;;;;;;20.95;3.47;;;4.90;99.90;;;;;;5040261;28;20026;-68
2023/04/14 04:08:05;;;;;;;20.17;4.82;;;4.90;99.90;;;;;;5040799;28;20056;-78
2023/04/14 04:10:33;;;;;;;10.32;3.22;;;4.90;99.90;;;;;;5039757;28;20026;-78
2023/04/14 04:13:01;;;;;;;12.82;3.63;;;4.80;99.90;;;;;;5039424;28;20116;-79
2023/04/14 04:15:27;;;;;;;15.60;3.78;;;4.80;99.90;;;;;;5040048;28;20041;-79
2023/04/14 04:17:54;;;;;;;28.80;4.93;;;4.80;99.90;;;;;;5039459;28;20080;-79
2023/04/14 04:20:21;;;;;;;71.85;5.93;;;4.80;99.90;;;;;;5040094;28;20022;-79
2023/04/14 04:22:50;;;;;;;50.88;6.93;;;4.70;99.90;;;;;;5039466;28;20139;-79
2023/04/14 04:25:17;;;;;;;186.23;14.23;;;4.50;99.90;;;;;;5039120;28;20025;-79
2023/04/14 04:27:43;;;;;;;78.63;8.20;;;4.40;99.90;;;;;;5039031;28;20060;-79
2023/04/14 04:30:10;;;;;;;113.32;10.52;;;4.30;99.90;;;;;;5038984;28;20108;-79
2023/04/14 04:32:37;;;;;;;69.60;7.95;;;4.10;99.90;;;;;;5038867;28;20037;-79
2023/04/14 04:35:05;;;;;;;151.02;12.85;;;4.00;99.90;;;;;;5040099;28;20052;-79
2023/04/14 04:37:32;;;;;;;44.78;6.05;;;4.00;99.90;;;;;;5039268;28;20079;-79
2023/04/14 04:39:58;;;;;;;236.30;17.90;;;4.10;99.90;;;;;;5039398;28;20037;-68
2023/04/14 04:42:24;;;;;;;139.75;14.35;;;4.00;99.90;;;;;;5039754;28;20100;-68
2023/04/14 04:44:50;;;;;;;102.90;10.57;;;4.00;99.90;;;;;;5039643;28;20025;-68
2023/04/14 04:47:16;;;;;;;153.25;12.23;;;4.00;99.90;;;;;;5038617;28;20026;-68
2023/04/14 04:49:42;;;;;;;118.97;12.63;;;4.10;99.90;;;;;;5038947;28;20112;-68
2023/04/14 04:52:07;;;;;;;169.68;12.68;;;4.10;99.90;;;;;;5037670;28;20017;-69
2023/04/14 04:54:33;;;;;;;77.22;8.65;;;4.10;99.90;;;;;;5039277;28;20040;-68
2023/04/14 04:56:58;;;;;;;102.25;8.30;;;4.20;99.90;;;;;;5038661;28;20029;-68
2023/04/14 04:59:24;;;;;;;59.28;8.02;;;4.40;99.90;;;;;;5038417;28;20021;-68
2023/04/14 05:01:50;;;;;;;171.48;15.00;;;4.50;99.90;;;;;;5038537;28;20053;-68
2023/04/14 05:04:16;;;;;;;78.85;7.50;;;4.30;99.90;;;;;;5038357;28;20116;-68
2023/04/14 05:06:45;;;;;;;88.10;7.90;;;4.10;99.90;;;;;;5039394;28;20025;-68
2023/04/14 05:09:11;;;;;;;88.13;10.52;;;4.20;99.90;;;;;;5038234;28;20022;-68
2023/04/14 05:11:36;;;;;;;52.33;6.88;;;4.20;99.90;;;;;;5038325;28;20036;-68
2023/04/14 05:14:02;;;;;;;65.93;9.52;;;4.30;99.90;;;;;;5038233;28;20028;-68
2023/04/14 05:16:28;;;;;;;68.65;7.53;;;4.30;99.90;;;;;;5038119;28;20021;-68
2023/04/14 05:18:54;;;;;;;148.30;10.68;;;4.30;99.90;;;;;;5039226;28;20021;-68
2023/04/14 05:21:19;;;;;;;81.15;7.28;;;4.10;99.90;;;;;;5038282;28;20040;-68
2023/04/14 05:23:46;;;;;;;38.28;6.53;;;4.10;99.90;;;;;;5039132;28;20021;-68
2023/04/14 05:26:13;;;;;;;51.00;5.80;;;4.20;99.90;;;;;;5037908;28;20032;-68
2023/04/14 05:28:39;;;;;;;111.53;9.88;;;4.30;99.90;;;;;;5037891;28;20112;-68
2023/04/14 05:31:05;;;;;;;86.55;8.18;;;4.30;99.90;;;;;;5038840;28;20025;-68
2023/04/14 05:33:31;;;;;;;65.85;8.18;;;4.30;99.90;;;;;;5038317;28;20028;-73
2023/04/14 05:35:56;;;;;;;103.18;11.10;;;4.10;99.90;;;;;;5037863;28;20018;-73
2023/04/14 05:38:22;;;;;;;68.88;7.35;;;4.10;99.90;;;;;;5037514;28;20112;-73
2023/04/14 05:40:48;;;;;;;60.47;6.35;;;4.20;99.90;;;;;;5037655;28;20038;-74
2023/04/14 05:43:15;;;;;;;47.90;6.78;;;4.20;99.90;;;;;;5037577;28;20021;-74
2023/04/14 05:45:41;;;;;;;41.10;6.05;;;4.30;99.90;;;;;;5038360;28;20025;-74
2023/04/14 05:48:07;;;;;;;102.45;9.27;;;4.40;99.90;;;;;;5033370;28;20110;-73
2023/04/14 05:50:33;;;;;;;52.80;5.80;;;4.30;99.90;;;;;;5036288;28;20033;-73
2023/04/14 05:52:59;;;;;;;99.60;8.45;;;4.20;99.90;;;;;;5025709;28;20022;-73
2023/04/14 05:55:24;;;;;;;62.15;7.40;;;4.10;99.90;;;;;;5017640;28;20152;-74
2023/04/14 05:57:51;;;;;;;84.80;7.30;;;3.90;99.90;;;;;;5017499;28;20025;-74
2023/04/14 06:00:17;;;;;;;68.90;6.38;;;4.00;99.90;;;;;;5018398;28;20076;-74
2023/04/14 06:02:43;;;;;;;118.03;8.48;;;4.10;99.90;;;;;;5017726;28;20030;-74
2023/04/14 06:05:09;;;;;;;38.88;5.43;;;4.00;99.90;;;;;;5016929;28;20034;-68
2023/04/14 06:07:35;;;;;;;16.08;4.20;;;4.20;99.90;;;;;;5020290;28;20104;-68
2023/04/14 06:10:01;;;;;;;24.75;5.60;;;4.30;99.90;;;;;;5037822;28;20090;-68
2023/04/14 06:12:27;;;;;;;12.70;3.72;;;4.50;99.90;;;;;;5034207;28;20052;-68
2023/04/14 06:14:53;;;;;;;35.33;6.13;;;4.80;99.90;;;;;;5028957;28;20025;-68
2023/04/14 06:17:19;;;;;;;32.28;5.60;;;5.00;99.90;;;;;;5020091;28;20033;-67
2023/04/14 06:19:48;;;;;;;19.10;4.03;;;5.00;99.90;;;;;;5019983;28;20037;-67
2023/04/14 06:22:18;;;;;;;37.72;4.75;;;5.00;99.90;;;;;;5017187;28;20164;-68
2023/04/14 06:24:47;;;;;;;27.35;4.72;;;5.10;99.90;;;;;;5024555;28;20021;-67
2023/04/14 06:27:13;;;;;;;49.75;6.78;;;5.10;99.90;;;;;;5036999;28;20017;-68
2023/04/14 06:29:39;;;;;;;14.07;3.58;;;5.00;99.90;;;;;;5036570;28;20024;-67
2023/04/14 06:32:05;;;;;;;10.60;4.15;;;4.90;99.90;;;;;;5036782;28;20021;-67
2023/04/14 06:34:30;;;;;;;11.52;4.32;;;5.00;99.90;;;;;;5036672;28;20122;-68
2023/04/14 06:36:57;;;;;;;19.10;4.20;;;5.10;99.90;;;;;;5036941;28;20021;-68
2023/04/14 06:39:23;;;;;;;26.65;7.43;;;5.20;99.90;;;;;;5025293;28;20025;-68
2023/04/14 06:41:49;;;;;;;45.00;6.88;;;5.30;99.90;;;;;;5017776;28;20060;-68
2023/04/14 06:44:14;;;;;;;107.13;11.45;;;5.30;99.90;;;;;;5029825;28;20112;-68
2023/04/14 06:46:40;;;;;;;31.65;5.03;;;5.10;99.90;;;;;;5019901;28;20022;-68
2023/04/14 06:49:06;;;;;;;17.98;3.85;;;5.00;99.90;;;;;;5017074;28;20026;-68
2023/04/14 06:51:32;;;;;;;40.25;5.90;;;5.00;99.90;;;;;;5016561;28;20019;-68
2023/04/14 06:53:58;;;;;;;15.25;4.60;;;5.00;99.90;;;;;;5017382;28;20048;-68
2023/04/14 06:56:23;;;;;;;60.95;6.95;;;5.00;99.90;;;;;;5017523;28;20030;-68
2023/04/14 06:58:49;;;;;;;12.77;3.67;;;5.10;99.90;;;;;;5017461;28;20071;-68
2023/04/14 07:01:15;;;;;;;8.77;3.83;;;5.20;99.90;;;;;;5023504;28;20027;-68
2023/04/14 07:03:40;;;;;;;10.25;4.07;;;5.40;99.90;;;;;;5037014;28;20040;-68
2023/04/14 07:06:15;;;;;;;8.63;3.40;;;5.40;99.90;;;;;;5017717;28;20014;-68
2023/04/14 07:08:41;;;;;;;8.95;4.47;;;5.50;99.90;;;;;;5016477;28;20108;-68
2023/04/14 07:11:08;;;;;;;12.57;3.60;;;5.50;99.90;;;;;;5016347;28;20168;-68
2023/04/14 07:13:34;;;;;;;6.90;4.13;;;5.60;99.90;;;;;;5024780;28;20021;-68
2023/04/14 07:16:01;;;;;;;13.02;3.30;;;5.70;99.90;;;;;;5035339;28;20080;-68
2023/04/14 07:18:27;;;;;;;8.98;4.25;;;5.70;99.90;;;;;;5023922;28;20333;-67
2023/04/14 07:20:54;;;;;;;10.93;4.45;;;5.90;99.90;;;;;;5017058;28;20046;-67
2023/04/14 07:23:20;;;;;;;16.60;5.28;;;6.00;99.90;;;;;;5016528;28;20089;-68
2023/04/14 07:25:53;;;;;;;10.68;4.03;;;5.90;99.90;;;;;;5016406;28;20125;-67
2023/04/14 07:28:19;;;;;;;13.32;4.20;;;5.90;99.90;;;;;;5017251;28;20018;-67
2023/04/14 07:30:45;;;;;;;11.65;4.53;;;6.00;99.90;;;;;;5016194;28;20036;-67
2023/04/14 07:33:11;;;;;;;10.77;4.20;;;6.00;99.90;;;;;;5016106;28;20022;-67
2023/04/14 07:35:38;;;;;;;6.97;4.03;;;5.90;99.90;;;;;;5016919;28;20033;-67
2023/04/14 07:38:04;;;;;;;8.32;4.50;;;5.90;99.90;;;;;;5017339;28;20030;-67
2023/04/14 07:40:29;;;;;;;24.75;4.82;;;5.90;99.90;;;;;;5017313;28;20045;-68
2023/04/14 07:42:56;;;;;;;8.40;4.60;;;5.90;99.90;;;;;;5017080;28;20073;-68
2023/04/14 07:45:22;;;;;;;14.57;4.28;;;5.80;99.90;;;;;;5016876;28;20038;-68
2023/04/14 07:47:47;;;;;;;10.63;5.10;;;5.70;99.90;;;;;;5016834;28;20026;-68
2023/04/14 07:50:13;;;;;;;17.75;5.30;;;5.60;99.90;;;;;;5017482;28;20105;-69
2023/04/14 07:52:39;;;;;;;12.57;5.25;;;5.70;99.90;;;;;;5015970;28;20025;-68
2023/04/14 07:55:05;;;;;;;9.65;4.88;;;5.70;99.90;;;;;;5017269;28;20030;-67
2023/04/14 07:57:33;;;;;;;9.30;4.68;;;5.80;99.90;;;;;;5015956;28;20033;-68
2023/04/14 07:59:58;;;;;;;15.60;5.15;;;6.00;99.90;;;;;;5030437;28;20025;-68
2023/04/14 08:02:24;;;;;;;6.82;4.47;;;6.20;99.90;;;;;;5035858;28;20043;-68
2023/04/14 08:04:49;;;;;;;15.02;4.82;;;6.30;99.90;;;;;;5035824;28;20029;-68
2023/04/14 08:07:15;;;;;;;9.57;4.40;;;6.30;99.90;;;;;;5035688;28;20129;-69
2023/04/14 08:09:41;;;;;;;12.50;5.32;;;6.40;99.90;;;;;;5035449;28;20024;-68
2023/04/14 08:12:07;;;;;;;11.70;5.00;;;6.50;99.90;;;;;;5035843;28;20034;-68
2023/04/14 08:14:33;;;;;;;9.18;5.10;;;6.50;99.90;;;;;;5036415;28;20038;-67
2023/04/14 08:16:58;;;;;;;8.48;4.85;;;6.60;99.90;;;;;;5035438;28;20029;-69
2023/04/14 08:19:24;;;;;;;8.60;4.60;;;6.70;99.90;;;;;;5035432;28;20063;-69
2023/04/14 08:21:50;;;;;;;14.70;5.03;;;6.80;99.90;;;;;;5036145;28;20068;-69
2023/04/14 08:24:16;;;;;;;8.23;4.35;;;7.00;99.90;;;;;;5035691;28;20091;-69
2023/04/14 08:26:42;;;;;;;12.30;4.38;;;7.10;99.90;;;;;;5036152;28;20017;-72
2023/04/14 08:29:07;;;;;;;9.15;4.20;;;7.30;99.90;;;;;;5039428;28;20041;-68
2023/04/14 08:31:33;;;;;;;9.82;4.55;;;7.30;99.90;;;;;;5038850;28;20025;-68
2023/04/14 08:33:58;;;;;;;11.75;4.30;;;7.30;99.90;;;;;;5040176;28;20021;-68
2023/04/14 08:36:24;;;;;;;8.38;4.53;;;7.50;99.90;;;;;;5038904;28;20029;-68
2023/04/14 08:38:49;;;;;;;10.23;4.55;;;7.70;99.90;;;;;;5038967;28;20060;-69
2023/04/14 08:41:18;;;;;;;11.02;4.32;;;7.80;99.90;;;;;;5039138;28;20069;-68
2023/04/14 08:43:44;;;;;;;13.85;5.30;;;7.90;99.90;;;;;;5038740;28;20121;-68
2023/04/14 08:46:10;;;;;;;11.98;5.47;;;8.10;99.90;;;;;;5039738;28;20029;-68
2023/04/14 08:48:37;;;;;;;9.32;3.97;;;8.30;99.90;;;;;;5038822;28;20045;-68
2023/04/14 08:51:12;;;;;;;15.15;5.22;;;8.40;99.90;;;;;;5039588;28;20021;-69
2023/04/14 08:53:44;;;;;;;14.73;4.90;;;8.50;99.90;;;;;;5039270;28;20116;-69
2023/04/14 08:56:12;;;;;;;8.02;4.35;;;8.70;99.90;;;;;;5037587;28;20048;-69
2023/04/14 08:58:39;;;;;;;10.57;4.60;;;8.80;99.90;;;;;;5019772;28;20080;-69
2023/04/14 09:01:04;;;;;;;10.00;4.18;;;9.00;99.90;;;;;;5018586;28;20057;-68
2023/04/14 09:03:30;;;;;;;9.45;3.63;;;9.10;99.90;;;;;;5018760;28;20033;-68
2023/04/14 09:05:56;;;;;;;11.68;3.92;;;9.20;99.90;;;;;;5019428;28;20058;-68
2023/04/14 09:08:22;;;;;;;10.30;3.95;;;9.20;99.90;;;;;;5018910;28;20052;-68
2023/04/14 09:10:49;;;;;;;9.13;4.80;;;9.20;99.90;;;;;;5019033;28;20025;-68
2023/04/14 09:13:16;;;;;;;17.23;4.90;;;9.30;99.90;;;;;;5018440;28;20041;-68
2023/04/14 09:15:42;;;;;;;12.95;4.43;;;9.40;99.90;;;;;;5018890;28;20113;-68
2023/04/14 09:18:10;;;;;;;8.30;4.13;;;9.60;99.90;;;;;;5019761;28;20031;-70
2023/04/14 09:20:36;;;;;;;8.20;4.05;;;9.80;99.90;;;;;;5038343;28;20028;-70
2023/04/14 09:23:03;;;;;;;7.13;3.88;;;9.90;99.90;;;;;;5039941;28;20048;-70
2023/04/14 09:25:29;;;;;;;7.32;3.47;;;10.10;99.90;;;;;;5038131;28;20025;-70
2023/04/14 09:27:54;;;;;;;10.27;3.83;;;10.20;99.90;;;;;;5038307;28;20021;-69
2023/04/14 09:30:20;;;;;;;8.05;3.50;;;10.20;99.90;;;;;;5041761;28;20065;-70
2023/04/14 09:32:52;;;;;;;5.85;3.00;;;10.40;99.90;;;;;;5039993;28;20040;-70
2023/04/14 09:35:17;;;;;;;7.78;3.70;;;10.50;99.90;;;;;;5037971;28;20033;-70
2023/04/14 09:37:45;;;;;;;7.25;3.47;;;10.70;99.90;;;;;;5037878;28;20144;-70
2023/04/14 09:40:27;;;;;;;7.43;3.35;;;11.00;99.90;;;;;;5037276;28;20036;-70
2023/04/14 09:42:53;;;;;;;15.90;3.05;;;11.30;99.90;;;;;;5044594;28;20083;-70
2023/04/14 09:45:19;;;;;;;7.45;3.25;;;11.60;99.90;;;;;;5037489;28;20026;-70
2023/04/14 09:47:46;;;;;;;5.53;2.25;;;11.90;99.90;;;;;;5038038;28;20052;-70
2023/04/14 09:50:11;;;;;;;7.57;2.78;;;12.10;99.90;;;;;;5038795;28;20076;-70
2023/04/14 09:52:44;;;;;;;8.65;2.55;;;12.20;99.90;;;;;;5019395;28;20033;-70
2023/04/14 09:55:15;;;;;;;4.10;2.10;;;12.40;99.90;;;;;;5017876;28;20025;-70
2023/04/14 09:57:42;;;;;;;9.32;2.58;;;12.40;99.90;;;;;;5017683;28;20089;-70
2023/04/14 10:00:19;;;;;;;11.52;2.42;;;12.30;99.90;;;;;;5018545;28;20034;-70
2023/04/14 10:02:54;;;;;;;4.38;2.33;;;12.40;99.90;;;;;;5025396;28;20040;-70
2023/04/14 10:05:25;;;;;;;4.07;2.08;;;12.50;99.90;;;;;;5037336;28;20026;-70
2023/04/14 10:07:50;;;;;;;6.97;2.13;;;12.60;99.90;;;;;;5064239;22;20041;-77
2023/04/14 10:10:16;;;;;;;9.45;2.30;;;12.80;99.90;;;;;;5039444;28;20021;-77
2023/04/14 10:12:43;;;;;;;4.22;2.20;;;13.30;99.90;;;;;;5039266;28;20120;-76
2023/04/14 10:15:10;;;;;;;15.50;2.85;;;13.20;99.90;;;;;;5040476;28;20116;-76
2023/04/14 10:17:38;;;;;;;3.75;1.98;;;13.40;99.90;;;;;;5039004;28;20030;-74
2023/04/14 10:20:07;;;;;;;7.47;2.20;;;13.60;99.90;;;;;;5038291;28;20025;-74
2023/04/14 10:22:33;;;;;;;7.70;2.22;;;13.80;99.90;;;;;;5038923;28;20034;-75
2023/04/14 10:24:59;;;;;;;9.00;2.20;;;14.30;99.90;;;;;;5038982;28;20029;-75
2023/04/14 10:27:30;;;;;;;4.15;1.95;;;14.70;99.90;;;;;;5037817;28;20029;-74
2023/04/14 10:29:56;;;;;;;4.57;2.10;;;14.80;99.90;;;;;;5038649;28;20049;-74
2023/04/14 10:32:23;;;;;;;4.68;2.17;;;15.10;99.90;;;;;;5038105;28;20103;-75
2023/04/14 10:35:08;;;;;;;6.32;2.30;;;15.10;99.90;;;;;;5038155;28;20025;-77
2023/04/14 10:37:34;;;;;;;8.70;2.60;;;15.00;99.90;;;;;;5037589;28;20030;-79
2023/04/14 10:40:04;;;;;;;7.95;3.13;;;15.10;99.90;;;;;;5037865;28;20026;-77
2023/04/14 10:42:50;;;;;;;6.65;3.00;;;15.00;99.90;;;;;;5037695;28;20036;-78
2023/04/14 10:45:16;;;;;;;9.00;3.05;;;15.00;99.90;;;;;;5037873;28;20030;-76
2023/04/14 10:47:44;;;;;;;6.53;2.90;;;15.20;99.90;;;;;;5039619;28;20028;-79
2023/04/14 10:50:16;;;;;;;10.73;3.05;;;15.40;99.90;;;;;;5037562;28;20121;-78
2023/04/14 10:52:54;;;;;;;;;;;15.70;99.90;;;;;;5039585;28;20026;-75
2023/04/14 10:55:24;;;;;;;7.35;2.55;;;16.00;99.90;;;;;;5037621;28;19905;-74
2023/04/14 10:57:51;;;;;;;4.50;1.90;;;16.30;99.90;;;;;;5036624;28;20033;-76
2023/04/14 11:00:21;;;;;;;6.97;2.50;;;16.30;99.90;;;;;;5036968;28;20025;-76
2023/04/14 11:02:58;;;;;;;10.88;2.42;;;16.50;99.90;;;;;;5037427;28;20026;-76
2023/04/14 11:05:24;;;;;;;7.65;2.10;;;16.70;99.90;;;;;;5038290;28;20056;-77
2023/04/14 11:07:57;;;;;;;4.43;1.80;;;16.60;99.90;;;;;;5036721;28;20029;-76
2023/04/14 11:10:23;;;;;;;7.32;1.80;;;16.80;99.90;;;;;;5037107;28;20045;-76
2023/04/14 11:12:54;;;;;;;8.10;1.70;;;17.20;96.40;;;;;;5036607;28;20045;-76
2023/04/14 11:15:19;;;;;;;9.90;2.13;;;17.40;96.60;;;;;;5037136;28;20084;-77
2023/04/14 11:17:45;;;;;;;9.20;2.13;;;17.40;95.60;;;;;;5037398;28;20065;-75
2023/04/14 11:20:21;;;;;;;5.68;2.00;;;17.30;93.70;;;;;;5037664;28;20036;-73
2023/04/14 11:22:49;;;;;;;5.95;1.40;;;17.20;94.90;;;;;;5036477;28;20034;-76
2023/04/14 11:25:16;;;;;;;3.60;1.73;;;17.40;95.40;;;;;;5037096;28;20062;-76
2023/04/14 11:27:43;;;;;;;5.55;1.90;;;17.50;93.60;;;;;;5036747;28;20056;-75
2023/04/14 11:30:16;;;;;;;3.67;1.60;;;17.60;92.30;;;;;;5036728;28;20021;-75
2023/04/14 11:32:52;;;;;;;8.90;1.63;;;17.70;91.80;;;;;;5037456;28;20116;-75
2023/04/14 11:35:21;;;;;;;6.68;1.92;;;17.70;92.30;;;;;;5036524;28;20030;-76
2023/04/14 11:37:47;;;;;;;6.95;1.63;;;17.80;92.70;;;;;;5037227;28;20034;-76
2023/04/14 11:40:14;;;;;;;7.40;2.05;;;18.00;91.00;;;;;;5037124;28;20037;-75
2023/04/14 11:42:45;;;;;;;5.88;2.00;;;18.10;91.80;;;;;;5037143;28;20116;-75
2023/04/14 11:45:14;;;;;;;5.75;1.52;;;18.30;88.60;;;;;;5037013;28;20032;-75
2023/04/14 11:47:45;;;;;;;7.72;1.92;;;18.40;91.20;;;;;;5037121;28;20093;-75
2023/04/14 11:50:10;;;;;;;5.10;1.50;;;18.50;88.10;;;;;;5040665;28;20025;-75
2023/04/14 11:52:36;;;;;;;5.70;1.50;;;18.60;85.30;;;;;;5039886;28;20083;-75
2023/04/14 11:55:02;;;;;;;3.97;1.85;;;18.80;83.30;;;;;;5036286;28;20079;-75
2023/04/14 11:57:28;;;;;;;16.50;1.98;;;18.70;81.00;;;;;;5036414;28;20068;-75
2023/04/14 11:59:55;;;;;;;9.23;2.00;;;18.90;86.70;;;;;;5036735;28;20076;-76
2023/04/14 12:02:21;;;;;;;7.57;1.45;;;19.10;83.90;;;;;;5037938;28;20064;-74
2023/04/14 12:04:49;;;;;;;6.15;1.70;;;19.20;86.30;;;;;;5040383;28;20022;-74
2023/04/14 12:07:16;;;;;;;5.43;1.35;;;19.50;91.60;;;;;;5039816;28;20049;-74
2023/04/14 12:09:43;;;;;;;6.75;1.60;;;19.70;89.60;;;;;;5040524;28;20108;-74
2023/04/14 12:12:13;;;;;;;10.20;1.90;;;19.80;86.70;;;;;;5040466;28;20017;-74
2023/04/14 12:14:49;;;;;;;3.47;1.42;;;20.00;90.40;;;;;;5039937;28;20030;-74
2023/04/14 12:17:16;;;;;;;4.90;1.63;;;20.10;87.10;;;;;;5040583;28;20053;-74
2023/04/14 12:19:43;;;;;;;5.15;1.27;;;20.20;87.30;;;;;;5039451;28;20146;-74
2023/04/14 12:22:09;;;;;;;6.15;1.65;;;20.40;85.30;;;;;;5040420;28;20030;-74
2023/04/14 12:24:40;;;;;;;5.22;2.00;;;20.40;83.90;;;;;;5040325;28;20032;-74
2023/04/14 12:27:08;;;;;;;3.03;1.17;;;19.90;80.80;;;;;;5039438;28;20021;-74
2023/04/14 12:29:37;;;;;;;6.50;1.50;;;19.40;81.50;;;;;;5039267;28;20045;-74
2023/04/14 12:32:13;;;;;;;6.32;1.52;;;19.10;83.30;;;;;;5040009;28;20022;-74
2023/04/14 12:34:39;;;;;;;4.72;1.55;;;18.60;83.70;;;;;;5040160;28;20036;-74
2023/04/14 12:37:10;;;;;;;4.00;1.35;;;18.30;80.70;;;;;;5039956;28;20021;-74
2023/04/14 12:40:00;;;;;;;3.50;1.48;;;18.10;86.20;;;;;;5040114;28;20183;-74
2023/04/14 12:42:43;;;;;;;4.07;1.58;;;17.80;81.30;;;;;;5040187;28;20033;-75
2023/04/14 12:45:09;;;;;;;9.52;1.52;;;17.50;82.60;;;;;;5039547;28;20087;-74
2023/04/14 12:47:35;;;;;;;7.68;1.60;;;17.40;85.80;;;;;;5038871;28;20029;-74
2023/04/14 12:50:31;;;;;;;3.45;1.45;;;17.20;83.50;;;;;;5038879;28;20072;-74
2023/04/14 12:52:58;;;;;;;6.28;1.50;;;17.10;85.40;;;;;;5039374;28;20021;-74
2023/04/14 12:55:29;;;;;;;6.45;1.60;;;16.90;80.60;;;;;;5038830;28;20031;-74